TIGER01 EHEH-EHEH

Flight info

Callsign TIGER01
Flight time N/A
Altitude 34000
Route DCT EHV
Aircraft F35/M-SDE3RV/LB1

Departure

Time 2026-04-27 16:31
Airport Eindhoven Airport (EHEH)

Arrival

Time N/A
Airport Eindhoven Airport (EHEH)
Time Latitude Longitude Altitude Speed Heading
2026-04-27 16:17 51.45413 5.37441 70 ft 0 kts 184°
2026-04-27 16:26 51.45411 5.37442 70 ft 1 kts 170°
2026-04-27 16:26 51.45333 5.37396 69 ft 11 kts 214°
2026-04-27 16:27 51.45245 5.37432 73 ft 12 kts 208°
2026-04-27 16:27 51.44982 5.37137 71 ft 19 kts 216°
2026-04-27 16:28 51.44759 5.36886 69 ft 21 kts 215°
2026-04-27 16:28 51.44495 5.36593 71 ft 25 kts 214°
2026-04-27 16:29 51.44076 5.36124 69 ft 21 kts 215°
2026-04-27 16:30 51.43937 5.36185 72 ft 12 kts 125°
2026-04-27 16:30 51.44835 5.37246 97 ft 261 kts 34°
2026-04-27 16:31 51.50629 5.40261 1987 ft 279 kts 308°
2026-04-27 16:31 51.52145 5.34914 1925 ft 270 kts 244°
2026-04-27 16:32 51.49395 5.31587 1850 ft 238 kts 213°
2026-04-27 16:32 51.47971 5.30170 1833 ft 244 kts 212°
2026-04-27 16:33 51.45085 5.27365 1816 ft 229 kts 212°
2026-04-27 16:33 51.43811 5.26130 1821 ft 197 kts 212°
2026-04-27 16:33 51.42726 5.25091 1793 ft 166 kts 211°
2026-04-27 16:33 51.41615 5.24043 1843 ft 223 kts 211°
2026-04-27 16:34 51.40154 5.22669 2025 ft 238 kts 211°
2026-04-27 16:34 51.39317 5.20824 1974 ft 210 kts 277°
2026-04-27 16:34 51.40323 5.19358 1924 ft 213 kts
2026-04-27 16:34 51.41472 5.20930 1968 ft 246 kts 79°
2026-04-27 16:35 51.40814 5.23072 2040 ft 216 kts 165°
2026-04-27 16:35 51.39548 5.22466 2094 ft 196 kts 212°
2026-04-27 16:35 51.36939 5.20985 2380 ft 229 kts 156°
2026-04-27 16:36 51.35917 5.23095 2467 ft 259 kts 98°
2026-04-27 16:36 51.36113 5.25946 2535 ft 246 kts 77°
2026-04-27 16:36 51.36775 5.28228 2513 ft 211 kts 50°
2026-04-27 16:36 51.37873 5.29729 2283 ft 213 kts 33°
2026-04-27 16:37 51.39058 5.31049 1833 ft 206 kts 34°
2026-04-27 16:37 51.40236 5.32372 1536 ft 210 kts 34°
2026-04-27 16:37 51.41464 5.33768 1328 ft 243 kts 34°
2026-04-27 16:37 51.42985 5.35482 1318 ft 272 kts 34°
2026-04-27 16:38 51.44499 5.37098 1277 ft 253 kts 17°
2026-04-27 16:38 51.45882 5.36013 1321 ft 223 kts 277°
2026-04-27 16:38 51.45054 5.34156 1261 ft 224 kts 213°
2026-04-27 16:38 51.43766 5.32847 1220 ft 209 kts 210°
2026-04-27 16:39 51.42346 5.33390 1287 ft 221 kts 116°
2026-04-27 16:39 51.42812 5.35145 605 ft 196 kts 24°
2026-04-27 16:39 51.43893 5.36202 122 ft 171 kts 34°
2026-04-27 16:39 51.45145 5.37600 115 ft 290 kts 34°
2026-04-27 16:40 51.46733 5.38352 1522 ft 266 kts 323°
2026-04-27 16:40 51.46659 5.35924 1291 ft 265 kts 214°
2026-04-27 16:40 51.45209 5.34424 1307 ft 231 kts 213°
2026-04-27 16:40 51.43929 5.33118 1271 ft 203 kts 213°
2026-04-27 16:41 51.42579 5.32750 1112 ft 207 kts 143°
2026-04-27 16:41 51.42468 5.34601 579 ft 189 kts 41°
2026-04-27 16:41 51.43527 5.35789 181 ft 181 kts 34°
2026-04-27 16:41 51.44525 5.36903 88 ft 216 kts 34°
2026-04-27 16:42 51.46042 5.38602 949 ft 228 kts 33°
2026-04-27 16:42 51.47451 5.40087 5087 ft 264 kts 32°
2026-04-27 16:42 51.49470 5.41310 8514 ft 390 kts 355°
2026-04-27 16:42 51.51696 5.39032 8561 ft 381 kts 306°
2026-04-27 16:43 51.52071 5.35379 8559 ft 326 kts 244°
2026-04-27 16:43 51.50388 5.33383 8522 ft 314 kts 210°
2026-04-27 16:43 51.48653 5.31718 8608 ft 277 kts 211°
2026-04-27 16:43 51.47100 5.30247 8618 ft 244 kts 212°
2026-04-27 16:44 51.45636 5.28858 8608 ft 249 kts 211°
2026-04-27 16:44 51.43940 5.27268 8694 ft 315 kts 211°
2026-04-27 16:44 51.41964 5.25466 8819 ft 325 kts 205°
2026-04-27 16:44 51.39849 5.25340 8626 ft 301 kts 155°
2026-04-27 16:45 51.38430 5.27836 8533 ft 312 kts 107°
2026-04-27 16:45 51.39114 5.30775 8143 ft 318 kts 42°
2026-04-27 16:45 51.40696 5.32950 8150 ft 282 kts 37°
2026-04-27 16:45 51.42211 5.34742 8203 ft 266 kts 35°
2026-04-27 16:46 51.43616 5.36361 8190 ft 234 kts 32°
2026-04-27 16:46 51.45180 5.37147 6802 ft 247 kts 353°
2026-04-27 16:46 51.46425 5.35665 4771 ft 228 kts 281°
2026-04-27 16:46 51.45808 5.33406 2608 ft 237 kts 219°
2026-04-27 16:47 51.44385 5.32562 1592 ft 207 kts 171°
2026-04-27 16:47 51.43411 5.33833 861 ft 169 kts 108°
2026-04-27 16:47 51.43620 5.35766 361 ft 196 kts 48°
2026-04-27 16:47 51.44849 5.37253 130 ft 320 kts 34°
2026-04-27 16:48 51.46589 5.39053 2618 ft 270 kts 10°
2026-04-27 16:48 51.48409 5.37555 2052 ft 320 kts 316°
2026-04-27 16:48 51.49769 5.35033 2028 ft 276 kts 283°
2026-04-27 16:49 51.47531 5.31833 1790 ft 287 kts 212°
2026-04-27 16:49 51.45854 5.30143 1874 ft 281 kts 213°
2026-04-27 16:49 51.44227 5.28506 1955 ft 277 kts 212°
2026-04-27 16:49 51.42632 5.26930 2017 ft 255 kts 212°
2026-04-27 16:50 51.41080 5.25787 2025 ft 271 kts 180°
2026-04-27 16:50 51.39742 5.27368 2029 ft 252 kts 104°
2026-04-27 16:50 51.39398 5.30042 2019 ft 229 kts 99°
2026-04-27 16:50 51.39913 5.32173 1865 ft 226 kts 37°
2026-04-27 16:51 51.41243 5.33667 1862 ft 223 kts 34°
2026-04-27 16:51 51.42429 5.35007 1824 ft 196 kts 34°
2026-04-27 16:51 51.43733 5.36477 1738 ft 282 kts 34°
2026-04-27 16:51 51.45544 5.37290 1808 ft 249 kts 322°
2026-04-27 16:52 51.45562 5.35050 1680 ft 217 kts 217°
2026-04-27 16:52 51.44368 5.33753 1534 ft 203 kts 213°
2026-04-27 16:52 51.43095 5.32631 1295 ft 238 kts 186°
2026-04-27 16:52 51.41593 5.31185 1276 ft 236 kts 225°
2026-04-27 16:53 51.40446 5.29697 1092 ft 230 kts 192°
2026-04-27 16:53 51.39359 5.30885 1059 ft 182 kts 80°
2026-04-27 16:53 51.40280 5.32336 794 ft 193 kts 30°
2026-04-27 16:53 51.41368 5.33409 590 ft 173 kts 32°
2026-04-27 16:54 51.42372 5.34498 408 ft 186 kts 34°
2026-04-27 16:54 51.43444 5.35693 219 ft 187 kts 34°
2026-04-27 16:54 51.44487 5.36861 97 ft 214 kts 34°
2026-04-27 16:54 51.46227 5.38799 423 ft 371 kts 34°
2026-04-27 16:55 51.48259 5.41051 983 ft 327 kts 34°
2026-04-27 16:55 51.50238 5.43222 1425 ft 383 kts 33°
2026-04-27 16:55 51.52378 5.45493 1923 ft 343 kts 30°
2026-04-27 16:55 51.54506 5.46779 1998 ft 313 kts 17°
2026-04-27 16:56 51.56445 5.47771 2007 ft 280 kts 17°
2026-04-27 16:56 51.58206 5.48647 2036 ft 253 kts 16°
2026-04-27 16:56 51.59798 5.49928 2030 ft 280 kts 46°
2026-04-27 16:56 51.60413 5.52652 1973 ft 253 kts 93°
2026-04-27 16:57 51.60361 5.55328 1858 ft 226 kts 91°
2026-04-27 16:57 51.60584 5.57883 1795 ft 250 kts 64°
2026-04-27 16:57 51.61457 5.60183 1757 ft 235 kts 57°
2026-04-27 16:57 51.62327 5.62379 1634 ft 234 kts 57°
2026-04-27 16:58 51.63258 5.64567 1470 ft 243 kts 55°
2026-04-27 16:58 51.64223 5.66906 1351 ft 260 kts 57°
2026-04-27 16:58 51.65188 5.69345 1347 ft 255 kts 57°
2026-04-27 16:58 51.65110 5.71988 1459 ft 278 kts 149°
2026-04-27 16:59 51.63550 5.71227 1437 ft 247 kts 242°
2026-04-27 16:59 51.62769 5.68935 1363 ft 224 kts 243°
2026-04-27 16:59 51.62718 5.66686 1237 ft 201 kts 308°
2026-04-27 16:59 51.63823 5.66083 997 ft 161 kts 30°
2026-04-27 17:00 51.64665 5.68050 207 ft 161 kts 59°
2026-04-27 17:00 51.65500 5.70201 78 ft 91 kts 58°
2026-04-27 17:00 51.65794 5.70966 71 ft 72 kts 57°
2026-04-27 17:01 51.65952 5.71378 74 ft 18 kts 59°
2026-04-27 17:01 51.66032 5.71408 73 ft 13 kts 328°
2026-04-27 17:01 51.66112 5.71327 76 ft 14 kts 328°
2026-04-27 17:01 51.66195 5.71244 76 ft 14 kts 325°
2026-04-27 17:02 51.66247 5.71114 72 ft 14 kts 290°
2026-04-27 17:02 51.66234 5.70962 73 ft 14 kts 257°
2026-04-27 17:02 51.66212 5.70808 73 ft 14 kts 257°
2026-04-27 17:02 51.66190 5.70650 76 ft 14 kts 257°
2026-04-27 17:03 51.66167 5.70494 72 ft 15 kts 255°
2026-04-27 17:03 51.66123 5.70348 76 ft 15 kts 222°
2026-04-27 17:03 51.66066 5.70271 72 ft 8 kts 219°
2026-04-27 17:03 51.66022 5.70279 76 ft 3 kts 156°
2026-04-27 17:04 51.66004 5.70289 70 ft 2 kts 135°
2026-04-27 17:04 51.66006 5.70303 76 ft 2 kts 52°
2026-04-27 17:04 51.66016 5.70302 76 ft 0 kts 335°